Time;durP1;ratioP1;P1;durP2;ratioP2;P2;SDS_P1;SDS_P2;PMS_P1;PMS_P2;Temp;Humidity;BMP_temperature;BMP_pressure;BME280_temperature;BME280_humidity;BME280_pressure;Samples;Min_cycle;Max_cycle;Signal;HPM_P1;HPM_P2
2023/03/18 00:01:18;;;;;;;7.90;4.15;;;13.70;78.60;;;;;;5116526;28;20083;-75
2023/03/18 00:03:44;;;;;;;10.23;3.97;;;13.70;78.80;;;;;;5115600;28;20023;-75
2023/03/18 00:06:17;;;;;;;9.52;4.40;;;13.70;78.80;;;;;;5116515;28;20079;-75
2023/03/18 00:08:45;;;;;;;6.95;4.05;;;13.70;79.20;;;;;;5116482;28;20027;-75
2023/03/18 00:11:11;;;;;;;7.57;4.30;;;13.70;79.20;;;;;;5116469;28;20028;-75
2023/03/18 00:13:38;;;;;;;8.60;5.13;;;13.70;79.40;;;;;;5116391;28;20020;-75
2023/03/18 00:16:05;;;;;;;7.88;4.50;;;13.70;79.30;;;;;;5116352;28;20023;-75
2023/03/18 00:18:31;;;;;;;9.90;4.45;;;13.70;79.50;;;;;;5116300;28;20057;-75
2023/03/18 00:20:59;;;;;;;8.38;4.38;;;13.70;79.20;;;;;;5115210;28;20036;-75
2023/03/18 00:23:26;;;;;;;7.50;4.22;;;13.80;79.20;;;;;;5116207;28;20016;-75
2023/03/18 00:25:55;;;;;;;8.90;4.70;;;13.80;79.50;;;;;;5116132;28;20024;-75
2023/03/18 00:28:21;;;;;;;9.07;4.82;;;13.80;79.40;;;;;;5115255;28;20050;-75
2023/03/18 00:30:48;;;;;;;9.40;4.72;;;13.70;79.60;;;;;;5116078;28;20047;-76
2023/03/18 00:33:14;;;;;;;7.65;4.53;;;13.70;80.20;;;;;;5115055;28;20483;-75
2023/03/18 00:35:41;;;;;;;8.27;4.95;;;13.60;80.30;;;;;;5115009;28;20051;-75
2023/03/18 00:38:08;;;;;;;9.48;5.28;;;13.70;80.50;;;;;;5115942;28;20052;-75
2023/03/18 00:41:00;;;;;;;10.15;5.10;;;13.60;80.80;;;;;;5115797;28;20028;-75
2023/03/18 00:43:28;;;;;;;11.68;5.13;;;13.60;81.10;;;;;;5116032;28;20027;-75
2023/03/18 00:45:56;;;;;;;7.88;4.72;;;13.50;81.60;;;;;;5115774;28;20017;-75
2023/03/18 00:48:23;;;;;;;10.07;4.78;;;13.40;82.00;;;;;;5115771;28;20016;-75
2023/03/18 00:50:49;;;;;;;9.68;5.03;;;13.40;82.30;;;;;;5114618;28;20035;-75
2023/03/18 00:53:15;;;;;;;7.10;4.65;;;13.40;83.20;;;;;;5115344;28;20183;-75
2023/03/18 00:55:42;;;;;;;10.27;5.43;;;13.40;82.40;;;;;;5115560;28;20036;-75
2023/03/18 00:58:08;;;;;;;11.35;5.00;;;13.40;82.60;;;;;;5115522;28;20031;-75
2023/03/18 01:00:38;;;;;;;11.35;5.45;;;13.40;82.60;;;;;;5114206;28;20062;-75
2023/03/18 01:03:05;;;;;;;10.70;5.47;;;13.50;82.70;;;;;;5115223;28;20020;-75
2023/03/18 01:05:32;;;;;;;11.05;5.20;;;13.50;82.80;;;;;;5115406;28;20020;-75
2023/03/18 01:07:58;;;;;;;9.20;5.07;;;13.50;83.10;;;;;;5115255;28;20023;-75
2023/03/18 01:10:24;;;;;;;11.52;5.15;;;13.40;83.40;;;;;;5114248;28;20411;-75
2023/03/18 01:12:49;;;;;;;11.65;5.60;;;13.40;83.30;;;;;;5114202;28;20032;-75
2023/03/18 01:15:18;;;;;;;8.35;4.97;;;13.40;84.20;;;;;;5114241;28;20035;-74
2023/03/18 01:17:45;;;;;;;10.75;5.68;;;13.30;84.10;;;;;;5115228;28;20027;-75
2023/03/18 01:20:13;;;;;;;9.93;5.50;;;13.30;84.40;;;;;;5115004;28;20028;-75
2023/03/18 01:22:43;;;;;;;10.32;5.53;;;13.30;84.80;;;;;;5115073;28;20020;-75
2023/03/18 01:25:10;;;;;;;8.80;5.25;;;13.30;85.10;;;;;;5115012;28;20047;-75
2023/03/18 01:27:36;;;;;;;12.25;5.45;;;13.30;86.20;;;;;;5114922;28;20028;-75
2023/03/18 01:30:03;;;;;;;10.25;5.25;;;13.40;85.00;;;;;;5114923;28;20023;-75
2023/03/18 01:32:29;;;;;;;12.00;6.15;;;13.30;85.50;;;;;;5113917;28;20031;-75
2023/03/18 01:34:55;;;;;;;11.55;5.82;;;13.30;86.10;;;;;;5114771;28;20036;-75
2023/03/18 01:37:21;;;;;;;12.50;5.68;;;13.30;86.30;;;;;;5114785;28;20380;-75
2023/03/18 01:39:47;;;;;;;10.05;5.93;;;13.20;86.80;;;;;;5114722;28;20070;-75
2023/03/18 01:42:13;;;;;;;12.60;6.20;;;13.30;87.20;;;;;;5113734;28;20422;-75
2023/03/18 01:44:39;;;;;;;12.02;5.72;;;13.30;87.70;;;;;;5114623;28;20024;-75
2023/03/18 01:47:05;;;;;;;10.15;5.82;;;13.20;88.60;;;;;;5114580;28;20083;-75
2023/03/18 01:49:35;;;;;;;13.63;6.38;;;13.30;89.30;;;;;;5114634;28;20016;-75
2023/03/18 01:52:04;;;;;;;10.90;6.15;;;13.20;90.50;;;;;;5114538;28;20027;-74
2023/03/18 01:54:33;;;;;;;13.55;6.32;;;13.10;90.50;;;;;;5114304;28;20103;-75
2023/03/18 01:56:59;;;;;;;12.70;6.47;;;13.00;91.10;;;;;;5114491;28;20027;-75
2023/03/18 01:59:28;;;;;;;10.60;6.78;;;13.00;91.50;;;;;;5114392;28;20024;-75
2023/03/18 02:02:02;;;;;;;13.20;6.93;;;12.90;91.60;;;;;;5114215;28;20079;-75
2023/03/18 02:04:35;;;;;;;15.65;7.15;;;12.90;91.90;;;;;;5114283;28;20024;-75
2023/03/18 02:07:01;;;;;;;15.73;6.70;;;12.90;91.80;;;;;;5114331;28;20027;-75
2023/03/18 02:09:28;;;;;;;14.95;7.32;;;12.90;92.20;;;;;;5114112;28;20028;-75
2023/03/18 02:11:54;;;;;;;13.05;7.05;;;12.90;92.60;;;;;;5114152;28;20028;-75
2023/03/18 02:14:22;;;;;;;16.13;7.68;;;12.80;92.70;;;;;;5113222;28;20088;-75
2023/03/18 02:17:09;;;;;;;15.10;7.93;;;12.80;92.80;;;;;;5114060;28;20046;-75
2023/03/18 02:19:48;;;;;;;15.65;7.55;;;12.80;92.70;;;;;;5113038;28;20046;-75
2023/03/18 02:22:34;;;;;;;16.42;7.55;;;12.90;92.50;;;;;;5113969;28;20035;-75
2023/03/18 02:25:02;;;;;;;15.18;7.68;;;12.90;92.10;;;;;;5113024;28;20070;-76
2023/03/18 02:27:34;;;;;;;14.45;7.82;;;12.90;92.40;;;;;;5113889;28;20020;-75
2023/03/18 02:30:07;;;;;;;19.55;8.00;;;12.90;92.40;;;;;;5113922;28;20023;-75
2023/03/18 02:32:32;;;;;;;;;;;12.90;92.80;;;;;;5114289;28;20023;-75
2023/03/18 02:35:01;;;;;;;14.38;7.35;;;12.80;93.20;;;;;;5112775;28;19908;-75
2023/03/18 02:37:27;;;;;;;14.57;7.25;;;12.80;93.30;;;;;;5113740;28;20025;-75
2023/03/18 02:39:53;;;;;;;11.63;6.80;;;12.70;93.30;;;;;;5113847;28;20028;-75
2023/03/18 02:42:28;;;;;;;13.68;7.72;;;12.70;93.20;;;;;;5113858;28;20036;-74
2023/03/18 02:44:54;;;;;;;14.20;7.45;;;12.80;93.70;;;;;;5113643;28;20024;-75
2023/03/18 02:47:21;;;;;;;19.73;8.77;;;12.70;93.40;;;;;;5113656;28;20024;-75
2023/03/18 02:49:47;;;;;;;20.42;8.40;;;12.70;93.70;;;;;;5113587;28;20020;-75
2023/03/18 02:52:13;;;;;;;17.42;8.90;;;12.70;93.60;;;;;;5113565;28;20024;-74
2023/03/18 02:54:38;;;;;;;16.38;8.05;;;12.70;93.60;;;;;;5113393;28;20112;-74
2023/03/18 02:57:04;;;;;;;14.38;8.15;;;12.70;94.10;;;;;;5113510;28;20036;-75
2023/03/18 02:59:31;;;;;;;19.27;8.75;;;12.70;94.30;;;;;;5113504;28;20044;-75
2023/03/18 03:01:57;;;;;;;15.50;7.82;;;12.60;94.30;;;;;;5113382;28;20487;-75
2023/03/18 03:04:24;;;;;;;15.93;8.52;;;12.60;94.60;;;;;;5113432;28;20028;-75
2023/03/18 03:06:51;;;;;;;16.33;8.02;;;12.60;94.60;;;;;;5113426;28;20020;-75
2023/03/18 03:09:17;;;;;;;16.33;8.25;;;12.60;95.00;;;;;;5113301;28;20020;-75
2023/03/18 03:11:45;;;;;;;14.30;8.05;;;12.60;95.10;;;;;;5113379;28;20024;-75
2023/03/18 03:14:10;;;;;;;18.00;8.88;;;12.60;95.60;;;;;;5112610;28;20099;-75
2023/03/18 03:16:36;;;;;;;15.80;7.95;;;12.50;95.80;;;;;;5113374;28;20020;-75
2023/03/18 03:19:03;;;;;;;16.58;8.25;;;12.50;95.80;;;;;;5112424;28;20361;-75
2023/03/18 03:21:29;;;;;;;17.08;8.23;;;12.50;95.90;;;;;;5113212;28;20028;-75
2023/03/18 03:23:55;;;;;;;14.57;8.48;;;12.50;95.80;;;;;;5113285;28;20031;-74
2023/03/18 03:26:20;;;;;;;14.98;8.27;;;12.50;95.90;;;;;;5116469;28;20020;-75
2023/03/18 03:28:46;;;;;;;19.13;9.07;;;12.50;96.10;;;;;;5117291;28;20020;-75
2023/03/18 03:31:13;;;;;;;14.85;8.70;;;12.50;96.20;;;;;;5117216;28;20024;-75
2023/03/18 03:33:40;;;;;;;16.88;8.60;;;12.40;96.40;;;;;;5117215;28;20028;-75
2023/03/18 03:36:12;;;;;;;15.88;8.30;;;12.40;96.50;;;;;;5116117;28;20083;-75
2023/03/18 03:38:38;;;;;;;16.70;8.60;;;12.40;96.70;;;;;;5117144;28;20092;-75
2023/03/18 03:41:04;;;;;;;17.88;9.48;;;12.40;96.90;;;;;;5115935;28;20032;-75
2023/03/18 03:43:31;;;;;;;18.80;8.65;;;12.40;96.90;;;;;;5117006;28;20024;-74
2023/03/18 03:45:57;;;;;;;20.27;9.15;;;12.40;97.10;;;;;;5117088;28;20024;-75
2023/03/18 03:48:22;;;;;;;17.65;8.93;;;12.40;97.10;;;;;;5117047;28;20137;-74
2023/03/18 03:50:50;;;;;;;21.25;8.93;;;12.40;97.40;;;;;;5115994;28;20028;-75
2023/03/18 03:53:15;;;;;;;15.90;8.68;;;12.40;97.70;;;;;;5116626;28;20047;-75
2023/03/18 03:55:41;;;;;;;17.67;9.27;;;12.30;97.80;;;;;;5116752;28;20111;-75
2023/03/18 03:58:08;;;;;;;21.50;9.23;;;12.30;98.10;;;;;;5116702;28;20028;-75
2023/03/18 04:00:34;;;;;;;16.83;9.32;;;12.30;98.00;;;;;;5115685;28;20079;-75
2023/03/18 04:03:00;;;;;;;19.70;10.07;;;12.30;98.10;;;;;;5116628;28;20032;-75
2023/03/18 04:05:25;;;;;;;19.98;9.90;;;12.20;98.20;;;;;;5116557;28;20028;-75
2023/03/18 04:07:52;;;;;;;23.83;10.00;;;12.30;98.20;;;;;;5116486;28;20463;-75
2023/03/18 04:10:19;;;;;;;17.98;9.55;;;12.30;98.10;;;;;;5116557;28;20054;-75
2023/03/18 04:12:46;;;;;;;18.98;9.77;;;12.30;98.10;;;;;;5116426;28;20055;-75
2023/03/18 04:15:13;;;;;;;21.38;9.75;;;12.30;98.50;;;;;;5116393;28;20028;-74
2023/03/18 04:17:39;;;;;;;18.88;9.48;;;12.30;98.40;;;;;;5115381;28;20028;-75
2023/03/18 04:20:05;;;;;;;21.55;10.05;;;12.20;98.40;;;;;;5116243;28;20032;-75
2023/03/18 04:22:31;;;;;;;18.80;9.43;;;12.20;98.40;;;;;;5116268;28;20054;-75
2023/03/18 04:24:57;;;;;;;17.88;9.13;;;12.20;98.50;;;;;;5116188;28;20012;-75
2023/03/18 04:27:23;;;;;;;15.98;9.18;;;12.20;98.80;;;;;;5116219;28;20020;-75
2023/03/18 04:29:49;;;;;;;20.92;10.18;;;12.20;98.90;;;;;;5116174;28;20020;-75
2023/03/18 04:32:14;;;;;;;21.55;10.25;;;12.20;98.90;;;;;;5115053;28;20043;-75
2023/03/18 04:34:40;;;;;;;19.63;9.70;;;12.10;99.60;;;;;;5116008;28;20029;-75
2023/03/18 04:37:07;;;;;;;17.77;10.00;;;12.10;99.00;;;;;;5114943;28;20032;-75
2023/03/18 04:39:33;;;;;;;19.92;9.95;;;12.20;99.00;;;;;;5116071;28;20028;-75
2023/03/18 04:41:59;;;;;;;25.40;10.98;;;12.10;99.20;;;;;;5115818;28;20055;-75
2023/03/18 04:44:25;;;;;;;21.15;9.95;;;12.20;99.10;;;;;;5114895;28;20033;-74
2023/03/18 04:46:52;;;;;;;21.98;9.75;;;12.20;98.90;;;;;;5115786;28;20479;-74
2023/03/18 04:49:18;;;;;;;20.77;10.50;;;12.20;98.80;;;;;;5115775;28;20024;-75
2023/03/18 04:51:44;;;;;;;20.60;9.77;;;12.20;98.90;;;;;;5115741;28;20028;-75
2023/03/18 04:54:12;;;;;;;20.70;10.07;;;12.20;99.30;;;;;;5097818;28;20052;-75
2023/03/18 04:56:38;;;;;;;20.13;10.40;;;12.20;98.90;;;;;;5115630;28;20096;-74
2023/03/18 04:59:05;;;;;;;21.48;10.10;;;12.20;98.90;;;;;;5114676;28;20093;-75
2023/03/18 05:01:31;;;;;;;19.92;10.80;;;12.20;99.10;;;;;;5115435;28;20020;-75
2023/03/18 05:03:57;;;;;;;18.35;9.32;;;12.20;98.90;;;;;;5115462;28;20047;-75
2023/03/18 05:06:25;;;;;;;20.48;10.00;;;12.20;98.80;;;;;;5114397;28;20047;-75
2023/03/18 05:08:51;;;;;;;19.10;10.30;;;12.20;99.00;;;;;;5115321;28;20023;-75
2023/03/18 05:11:19;;;;;;;25.55;10.88;;;12.20;98.90;;;;;;5115307;28;20028;-74
2023/03/18 05:13:45;;;;;;;20.98;10.27;;;12.20;99.00;;;;;;5114211;28;20035;-74
2023/03/18 05:16:10;;;;;;;20.35;10.55;;;12.20;99.00;;;;;;5114497;28;20024;-75
2023/03/18 05:18:37;;;;;;;21.30;10.52;;;12.20;99.00;;;;;;5115153;28;20379;-74
2023/03/18 05:21:04;;;;;;;20.70;10.57;;;12.20;99.10;;;;;;5115039;28;20058;-75
2023/03/18 05:23:30;;;;;;;19.92;10.32;;;12.20;99.20;;;;;;5114076;28;20068;-75
2023/03/18 05:25:56;;;;;;;20.30;9.80;;;12.20;99.40;;;;;;5115060;28;20084;-75
2023/03/18 05:28:22;;;;;;;23.50;10.30;;;12.10;99.40;;;;;;5114997;28;20035;-75
2023/03/18 05:30:48;;;;;;;20.52;10.55;;;12.10;99.40;;;;;;5113924;28;20507;-74
2023/03/18 05:33:14;;;;;;;21.67;10.60;;;12.10;99.40;;;;;;5113882;28;20028;-75
2023/03/18 05:35:40;;;;;;;18.40;9.85;;;12.10;99.50;;;;;;5114842;28;20024;-75
2023/03/18 05:38:06;;;;;;;19.27;9.50;;;12.10;99.40;;;;;;5113934;28;20024;-74
2023/03/18 05:40:32;;;;;;;20.20;10.63;;;12.10;99.20;;;;;;5113814;28;20052;-75
2023/03/18 05:42:58;;;;;;;22.58;10.38;;;12.20;99.20;;;;;;5114843;28;20032;-75
2023/03/18 05:45:24;;;;;;;20.95;10.27;;;12.20;99.30;;;;;;5113868;28;20036;-74
2023/03/18 05:47:50;;;;;;;21.67;11.40;;;12.20;99.50;;;;;;5113458;28;20024;-75
2023/03/18 05:50:34;;;;;;;18.25;10.30;;;12.10;99.50;;;;;;5114604;28;20024;-74
2023/03/18 05:53:00;;;;;;;23.77;10.30;;;12.10;99.50;;;;;;5114379;28;20064;-75
2023/03/18 05:55:27;;;;;;;24.58;11.23;;;12.10;99.30;;;;;;5113563;28;20024;-74
2023/03/18 05:57:53;;;;;;;19.10;10.63;;;12.10;99.40;;;;;;5114452;28;20020;-74
2023/03/18 06:00:19;;;;;;;22.35;10.77;;;12.10;99.30;;;;;;5114329;28;20031;-75
2023/03/18 06:02:45;;;;;;;21.27;10.35;;;12.20;99.10;;;;;;5114350;28;20035;-75
2023/03/18 06:05:11;;;;;;;20.95;10.25;;;12.10;99.30;;;;;;5114309;28;20025;-74
2023/03/18 06:07:38;;;;;;;21.20;10.50;;;12.10;99.40;;;;;;5114252;28;20028;-75
2023/03/18 06:10:04;;;;;;;23.70;10.13;;;12.10;99.50;;;;;;5114157;28;20035;-75
2023/03/18 06:12:30;;;;;;;20.23;9.82;;;12.10;99.40;;;;;;5114155;28;20024;-75
2023/03/18 06:14:56;;;;;;;21.58;10.38;;;12.10;99.60;;;;;;5113981;28;20121;-75
2023/03/18 06:17:22;;;;;;;21.25;10.52;;;12.10;99.70;;;;;;5113147;28;20040;-75
2023/03/18 06:19:47;;;;;;;23.40;9.88;;;12.10;99.70;;;;;;5114095;28;20024;-74
2023/03/18 06:22:15;;;;;;;17.00;9.55;;;12.10;99.90;;;;;;5113940;28;20139;-75
2023/03/18 06:24:41;;;;;;;22.38;10.35;;;12.10;99.90;;;;;;5113973;28;20095;-75
2023/03/18 06:27:07;;;;;;;21.85;9.77;;;12.10;99.90;;;;;;5113914;28;20020;-75
2023/03/18 06:29:34;;;;;;;18.45;10.02;;;12.10;99.90;;;;;;5112987;28;20079;-75
2023/03/18 06:31:59;;;;;;;18.48;9.13;;;12.10;99.90;;;;;;5096005;28;20032;-75
2023/03/18 06:34:25;;;;;;;20.38;10.80;;;12.10;99.90;;;;;;5113800;28;20039;-75
2023/03/18 06:36:51;;;;;;;18.77;9.60;;;12.10;99.70;;;;;;5113783;28;20054;-75
2023/03/18 06:39:18;;;;;;;21.45;10.68;;;12.20;99.60;;;;;;5113757;28;20088;-75
2023/03/18 06:41:44;;;;;;;20.13;10.82;;;12.20;99.20;;;;;;5113665;28;20044;-75
2023/03/18 06:44:12;;;;;;;24.67;10.30;;;12.30;99.00;;;;;;5113709;28;20107;-75
2023/03/18 06:46:38;;;;;;;20.52;10.32;;;12.30;98.90;;;;;;5113666;28;20080;-75
2023/03/18 06:49:04;;;;;;;17.92;9.43;;;12.40;98.70;;;;;;5113515;28;20042;-75
2023/03/18 06:51:29;;;;;;;19.17;9.15;;;12.40;98.50;;;;;;5095939;28;20057;-75
2023/03/18 06:53:55;;;;;;;19.27;9.63;;;12.30;98.60;;;;;;5113331;28;20064;-75
2023/03/18 06:56:22;;;;;;;20.77;9.57;;;12.20;98.90;;;;;;5113571;28;20024;-75
2023/03/18 06:58:48;;;;;;;20.20;10.05;;;12.20;99.00;;;;;;5113202;28;20103;-75
2023/03/18 07:01:14;;;;;;;19.42;9.50;;;12.20;99.00;;;;;;5113348;28;20039;-75
2023/03/18 07:03:40;;;;;;;16.77;9.38;;;12.20;99.20;;;;;;5112456;28;20048;-75
2023/03/18 07:06:08;;;;;;;18.75;9.50;;;12.20;99.40;;;;;;5112370;28;20028;-75
2023/03/18 07:08:34;;;;;;;19.05;9.70;;;12.20;99.50;;;;;;5112380;28;20019;-75
2023/03/18 07:11:00;;;;;;;17.67;9.32;;;12.20;99.30;;;;;;5113554;28;20085;-75
2023/03/18 07:13:26;;;;;;;19.27;9.32;;;12.30;99.30;;;;;;5113390;28;20032;-75
2023/03/18 07:15:55;;;;;;;17.65;9.73;;;12.30;99.20;;;;;;5095508;28;20099;-75
2023/03/18 07:18:21;;;;;;;18.02;9.35;;;12.30;99.30;;;;;;5113288;28;20484;-76
2023/03/18 07:20:47;;;;;;;18.27;9.60;;;12.30;99.50;;;;;;5113265;28;20060;-75
2023/03/18 07:23:13;;;;;;;18.38;9.55;;;12.30;99.50;;;;;;5113439;28;20013;-75
2023/03/18 07:25:38;;;;;;;21.25;9.30;;;12.30;99.40;;;;;;5113261;28;20027;-75
2023/03/18 07:28:04;;;;;;;18.35;9.02;;;12.30;99.80;;;;;;5112337;28;20044;-74
2023/03/18 07:30:30;;;;;;;17.50;9.40;;;12.30;99.60;;;;;;5113234;28;20073;-74
2023/03/18 07:32:56;;;;;;;17.02;9.65;;;12.40;99.70;;;;;;5113179;28;20032;-75
2023/03/18 07:35:22;;;;;;;18.17;9.82;;;12.40;99.70;;;;;;5113161;28;20076;-75
2023/03/18 07:37:48;;;;;;;20.30;10.45;;;12.40;99.80;;;;;;5113254;28;20035;-74
2023/03/18 07:40:14;;;;;;;18.42;9.60;;;12.40;99.80;;;;;;5095055;28;20036;-75
2023/03/18 07:42:39;;;;;;;17.25;9.18;;;12.40;99.80;;;;;;5112140;28;20046;-75
2023/03/18 07:45:06;;;;;;;18.65;9.15;;;12.40;99.90;;;;;;5112086;28;20024;-74
2023/03/18 07:47:32;;;;;;;18.75;10.32;;;12.40;99.70;;;;;;5113066;28;20486;-74
2023/03/18 07:49:58;;;;;;;20.00;10.10;;;12.40;99.70;;;;;;5112990;28;20028;-74
2023/03/18 07:52:24;;;;;;;21.70;10.20;;;12.40;99.80;;;;;;5113001;28;20017;-75
2023/03/18 07:54:51;;;;;;;21.30;11.00;;;12.50;99.90;;;;;;5072456;28;20114;-75
2023/03/18 07:57:17;;;;;;;18.60;9.48;;;12.50;99.90;;;;;;5072591;28;20017;-75
2023/03/18 07:59:42;;;;;;;14.38;8.55;;;12.50;99.00;;;;;;5072560;28;20033;-75
2023/03/18 08:02:12;;;;;;;15.20;7.82;;;12.50;99.20;;;;;;5072482;28;20044;-75
2023/03/18 08:04:38;;;;;;;16.92;9.10;;;12.40;99.00;;;;;;5072611;28;20126;-75
2023/03/18 08:07:04;;;;;;;21.92;10.27;;;12.40;99.30;;;;;;5072506;28;20108;-75
2023/03/18 08:09:29;;;;;;;18.50;10.57;;;12.50;99.40;;;;;;5072503;28;20025;-75
2023/03/18 08:11:55;;;;;;;18.90;10.10;;;12.60;99.30;;;;;;5073975;28;20064;-75
2023/03/18 08:14:20;;;;;;;21.10;9.63;;;12.60;99.00;;;;;;5076024;28;20029;-76
2023/03/18 08:16:46;;;;;;;17.63;9.23;;;12.70;99.70;;;;;;5074883;28;20029;-76
2023/03/18 08:19:12;;;;;;;17.85;9.95;;;12.80;98.90;;;;;;5075934;28;20025;-76
2023/03/18 08:21:38;;;;;;;16.05;8.52;;;12.80;98.20;;;;;;5075824;28;20036;-75
2023/03/18 08:24:04;;;;;;;16.08;7.90;;;12.80;98.20;;;;;;5075862;28;20021;-74
2023/03/18 08:26:30;;;;;;;20.27;9.02;;;12.90;97.80;;;;;;5075938;28;20036;-74
2023/03/18 08:28:55;;;;;;;17.63;7.88;;;13.10;97.70;;;;;;5075782;28;20025;-74
2023/03/18 08:31:21;;;;;;;14.80;8.48;;;13.20;97.20;;;;;;5075713;28;20044;-74
2023/03/18 08:33:48;;;;;;;12.73;6.55;;;13.30;97.00;;;;;;5075680;28;20039;-74
2023/03/18 08:36:14;;;;;;;16.20;7.63;;;13.40;96.40;;;;;;5074875;28;20052;-74
2023/03/18 08:38:39;;;;;;;16.55;8.52;;;13.40;96.30;;;;;;5075535;28;20025;-74
2023/03/18 08:41:05;;;;;;;13.50;7.60;;;13.40;96.20;;;;;;5075444;28;20092;-74
2023/03/18 08:43:31;;;;;;;15.43;7.90;;;13.50;95.30;;;;;;5074570;28;20442;-74
2023/03/18 08:45:57;;;;;;;18.33;8.38;;;13.60;95.80;;;;;;5075434;28;20052;-74
2023/03/18 08:48:24;;;;;;;13.90;7.78;;;13.70;95.90;;;;;;5075409;28;20029;-74
2023/03/18 08:50:50;;;;;;;16.42;8.00;;;13.70;95.30;;;;;;5075362;28;20032;-74
2023/03/18 08:53:16;;;;;;;17.15;7.80;;;13.90;95.90;;;;;;5089174;28;20052;-74
2023/03/18 08:55:42;;;;;;;12.88;7.25;;;14.00;95.40;;;;;;5115628;28;20044;-74
2023/03/18 08:58:08;;;;;;;14.95;7.35;;;14.00;94.50;;;;;;5115561;28;20035;-74
2023/03/18 09:00:36;;;;;;;13.65;7.38;;;13.90;94.20;;;;;;5115497;28;20145;-74
2023/03/18 09:03:03;;;;;;;13.23;7.45;;;13.90;94.70;;;;;;5115506;28;20051;-74
2023/03/18 09:05:29;;;;;;;15.85;7.80;;;13.90;94.50;;;;;;5115561;28;20052;-74
2023/03/18 09:07:55;;;;;;;13.40;7.40;;;14.00;94.30;;;;;;5115335;28;20020;-74
2023/03/18 09:10:21;;;;;;;15.23;8.48;;;14.10;94.70;;;;;;5115350;28;20035;-74
2023/03/18 09:12:48;;;;;;;14.35;8.07;;;14.30;94.50;;;;;;5115312;28;20044;-74
2023/03/18 09:15:15;;;;;;;12.77;7.30;;;14.40;94.00;;;;;;5115214;28;20017;-75
2023/03/18 09:17:42;;;;;;;11.27;6.82;;;14.40;93.70;;;;;;5114235;28;20024;-74
2023/03/18 09:20:11;;;;;;;11.82;6.57;;;14.40;93.00;;;;;;5114801;28;20024;-75
2023/03/18 09:22:38;;;;;;;10.70;6.03;;;14.30;92.50;;;;;;5114597;28;20020;-74
2023/03/18 09:25:05;;;;;;;12.82;6.70;;;14.20;92.50;;;;;;5115061;28;20046;-74
2023/03/18 09:27:31;;;;;;;10.88;6.78;;;14.20;92.80;;;;;;5114052;28;20024;-74
2023/03/18 09:29:56;;;;;;;13.93;7.20;;;14.30;93.00;;;;;;5114960;28;20012;-75
2023/03/18 09:32:22;;;;;;;12.18;6.53;;;14.50;92.90;;;;;;5113956;28;20025;-75
2023/03/18 09:34:48;;;;;;;10.73;6.32;;;14.70;92.40;;;;;;5113846;28;20028;-74
2023/03/18 09:37:13;;;;;;;9.55;5.72;;;14.80;92.10;;;;;;5114956;28;20085;-75
2023/03/18 09:39:40;;;;;;;10.50;5.90;;;14.90;91.80;;;;;;5114775;28;20024;-74
2023/03/18 09:42:09;;;;;;;11.07;5.95;;;15.00;92.00;;;;;;5114673;28;20024;-74
2023/03/18 09:44:36;;;;;;;9.68;5.53;;;15.10;91.40;;;;;;5114664;28;20186;-74
2023/03/18 09:47:15;;;;;;;11.88;6.20;;;15.20;92.00;;;;;;5113722;28;20028;-75
2023/03/18 09:49:59;;;;;;;10.88;5.85;;;15.20;91.00;;;;;;5114693;28;20036;-75
2023/03/18 09:52:38;;;;;;;10.35;6.15;;;15.30;90.90;;;;;;5114546;28;20028;-75
2023/03/18 09:55:39;;;;;;;8.73;5.30;;;15.30;90.70;;;;;;5114553;28;20506;-75
2023/03/18 09:58:35;;;;;;;12.52;5.57;;;15.40;90.40;;;;;;5114479;28;20062;-75
2023/03/18 10:01:03;;;;;;;9.85;5.28;;;15.50;89.70;;;;;;5114247;28;20087;-75
2023/03/18 10:03:41;;;;;;;9.80;5.18;;;15.40;90.30;;;;;;5114330;28;20027;-75
2023/03/18 10:06:19;;;;;;;10.02;5.30;;;15.50;90.50;;;;;;5114320;28;20040;-74
2023/03/18 10:09:05;;;;;;;13.43;6.13;;;15.40;89.90;;;;;;5114246;28;20096;-75
2023/03/18 10:11:42;;;;;;;9.68;5.25;;;15.50;90.10;;;;;;5114377;28;20020;-75
2023/03/18 10:14:32;;;;;;;8.23;4.25;;;15.50;89.40;;;;;;5113166;28;20027;-75
2023/03/18 10:17:19;;;;;;;7.93;5.05;;;15.60;89.80;;;;;;5114143;28;20028;-75
2023/03/18 10:19:57;;;;;;;8.02;5.00;;;15.50;89.00;;;;;;5114182;28;20035;-75
2023/03/18 10:22:48;;;;;;;8.05;4.72;;;15.70;90.10;;;;;;5114057;28;20113;-75
2023/03/18 10:25:48;;;;;;;10.20;5.22;;;15.80;88.90;;;;;;5114065;28;20387;-75
2023/03/18 10:28:40;;;;;;;7.78;4.82;;;15.90;89.70;;;;;;5113983;28;20028;-74
2023/03/18 10:31:30;;;;;;;11.05;6.00;;;15.90;86.90;;;;;;5114006;28;20046;-75
2023/03/18 10:34:00;;;;;;;9.35;5.57;;;15.90;88.30;;;;;;5113028;28;20087;-75
2023/03/18 10:36:29;;;;;;;9.25;5.00;;;16.00;87.90;;;;;;5113740;28;20031;-75
2023/03/18 10:38:56;;;;;;;7.88;5.13;;;16.10;88.50;;;;;;5113879;28;20020;-74
2023/03/18 10:41:35;;;;;;;7.03;4.90;;;16.20;87.10;;;;;;5112593;28;20475;-74
2023/03/18 10:44:06;;;;;;;9.23;5.10;;;16.30;86.20;;;;;;5113875;28;20024;-75
2023/03/18 10:46:34;;;;;;;9.27;5.03;;;16.30;86.10;;;;;;5113729;28;20020;-75
2023/03/18 10:49:24;;;;;;;7.72;4.60;;;16.20;86.20;;;;;;5112749;28;20024;-75
2023/03/18 10:52:05;;;;;;;7.32;4.57;;;16.40;85.40;;;;;;5113116;28;20040;-74
2023/03/18 10:54:40;;;;;;;8.18;4.50;;;16.50;85.10;;;;;;5112497;28;20068;-75
2023/03/18 10:57:13;;;;;;;5.38;3.42;;;16.40;84.60;;;;;;5113639;28;20024;-75
2023/03/18 10:59:39;;;;;;;;;;;16.50;83.40;;;;;;5113014;28;20031;-75
2023/03/18 11:02:27;;;;;;;7.45;3.88;;;16.50;83.90;;;;;;5113577;28;19908;-75
2023/03/18 11:04:58;;;;;;;7.55;4.07;;;16.60;83.40;;;;;;5113549;28;20035;-75
2023/03/18 11:07:26;;;;;;;8.15;3.80;;;16.80;81.30;;;;;;5113510;28;20024;-75
2023/03/18 11:09:52;;;;;;;7.38;3.08;;;16.80;81.00;;;;;;5113371;28;20048;-75
2023/03/18 11:12:24;;;;;;;6.32;3.33;;;16.80;81.80;;;;;;5113428;28;20027;-75
2023/03/18 11:14:52;;;;;;;5.38;2.72;;;16.80;79.60;;;;;;5112501;28;20039;-76
2023/03/18 11:17:36;;;;;;;6.10;3.08;;;16.90;80.50;;;;;;5113370;28;20025;-75
2023/03/18 11:20:24;;;;;;;6.25;2.95;;;16.80;79.20;;;;;;5113364;28;20028;-75
2023/03/18 11:22:52;;;;;;;7.65;3.17;;;16.90;80.00;;;;;;5113257;28;20024;-75
2023/03/18 11:25:19;;;;;;;4.43;2.92;;;16.90;79.30;;;;;;5113297;28;20043;-75
2023/03/18 11:27:56;;;;;;;5.80;2.90;;;17.00;79.40;;;;;;5113304;28;20024;-75
2023/03/18 11:30:25;;;;;;;6.88;3.30;;;17.00;77.90;;;;;;5113305;28;20032;-75
2023/03/18 11:32:52;;;;;;;5.43;3.58;;;17.00;79.00;;;;;;5113226;28;20379;-75
2023/03/18 11:35:21;;;;;;;7.30;3.28;;;17.10;79.40;;;;;;5113153;28;20025;-75
2023/03/18 11:37:47;;;;;;;4.55;2.40;;;17.30;77.90;;;;;;5113142;28;20016;-75
2023/03/18 11:40:12;;;;;;;4.82;2.53;;;17.20;77.70;;;;;;5113065;28;20020;-75
2023/03/18 11:42:39;;;;;;;3.45;2.00;;;17.10;76.80;;;;;;5113105;28;20020;-76
2023/03/18 11:45:30;;;;;;;4.07;2.47;;;17.00;75.60;;;;;;5113371;28;20042;-75
2023/03/18 11:47:57;;;;;;;5.75;2.70;;;16.90;75.50;;;;;;5117154;28;20024;-75
2023/03/18 11:50:26;;;;;;;4.72;2.53;;;16.80;78.10;;;;;;5116940;28;20028;-75
2023/03/18 11:53:08;;;;;;;5.03;2.83;;;16.80;79.00;;;;;;5116586;28;20066;-75
2023/03/18 11:55:40;;;;;;;4.20;2.80;;;16.70;78.00;;;;;;5117020;28;20049;-75
2023/03/18 11:58:19;;;;;;;4.28;2.70;;;16.70;78.50;;;;;;5116795;28;20031;-75
2023/03/18 12:01:05;;;;;;;3.38;2.28;;;16.70;79.20;;;;;;5115702;28;20028;-75
2023/03/18 12:03:42;;;;;;;4.47;2.45;;;16.60;79.30;;;;;;5115734;28;20024;-75
2023/03/18 12:06:39;;;;;;;3.88;2.22;;;16.50;78.20;;;;;;5116684;28;20016;-75
2023/03/18 12:09:14;;;;;;;6.22;2.95;;;16.50;78.60;;;;;;5115976;28;20031;-75
2023/03/18 12:11:58;;;;;;;4.43;2.50;;;16.50;78.40;;;;;;5115616;28;20070;-75
2023/03/18 12:14:43;;;;;;;5.55;2.65;;;16.60;80.20;;;;;;5116642;28;20027;-75
2023/03/18 12:17:29;;;;;;;3.10;1.83;;;16.60;80.00;;;;;;5116466;28;20501;-75
2023/03/18 12:20:23;;;;;;;4.68;2.28;;;16.60;76.50;;;;;;5115856;28;20097;-75
2023/03/18 12:23:10;;;;;;;4.35;2.13;;;16.50;76.80;;;;;;5116326;28;20034;-75
2023/03/18 12:25:54;;;;;;;5.43;2.20;;;16.50;78.50;;;;;;5116441;28;20047;-75
2023/03/18 12:28:57;;;;;;;4.20;2.13;;;16.40;78.60;;;;;;5116399;28;20130;-75
2023/03/18 12:31:28;;;;;;;4.75;1.92;;;16.40;77.80;;;;;;5115159;28;20091;-75
2023/03/18 12:34:00;;;;;;;3.30;1.97;;;16.40;77.70;;;;;;5115079;28;20036;-75
2023/03/18 12:36:55;;;;;;;5.47;2.78;;;16.30;78.40;;;;;;5116072;28;20269;-75
2023/03/18 12:39:26;;;;;;;7.88;2.28;;;16.30;79.30;;;;;;5116170;28;20021;-75
2023/03/18 12:42:13;;;;;;;3.43;2.10;;;16.20;78.90;;;;;;5114848;28;20059;-76
2023/03/18 12:45:04;;;;;;;3.92;2.33;;;16.20;78.70;;;;;;5115924;28;20024;-75
2023/03/18 12:47:42;;;;;;;3.55;2.58;;;16.20;78.60;;;;;;5115896;28;20055;-75
2023/03/18 12:50:33;;;;;;;4.22;1.92;;;16.20;78.60;;;;;;5115946;28;20024;-75